Terminal Aerodrome Forecast
Issued by NWS

Home | Current Version | Previous Version | Text Only | Print | Product List | Glossary On
Versions: 1 2 3 4 5 6 7 8 9 10 11 12 13
680
FTUS45 KTFX 121725
TAFHVR
TAF
KHVR 121725Z 1218/1318 23026KT P6SM BKN150 BKN200
      TEMPO 1218/1222 23026G36KT
     FM130200 26015KT P6SM BKN130 BKN200=

USA.gov is the U.S. government's official web portal to all federal, state and local government web resources and services.